Time;durP1;ratioP1;P1;durP2;ratioP2;P2;SDS_P1;SDS_P2;PMS_P1;PMS_P2;Temp;Humidity;BMP_temperature;BMP_pressure;BME280_temperature;BME280_humidity;BME280_pressure;Samples;Min_cycle;Max_cycle;Signal;HPM_P1;HPM_P2
2022/08/22 00:01:20;;;;;;;1.67;1.00;;;16.40;99.90;;;;;;5056910;28;20048;-72
2022/08/22 00:04:02;;;;;;;1.85;1.08;;;16.40;99.90;;;;;;5040359;28;20056;-77
2022/08/22 00:06:48;;;;;;;2.15;1.40;;;16.30;99.90;;;;;;5056744;28;20127;-74
2022/08/22 00:09:32;;;;;;;2.35;1.30;;;16.30;99.90;;;;;;5056181;28;20040;-72
2022/08/22 00:12:03;;;;;;;3.35;1.55;;;16.30;99.90;;;;;;5056982;28;20037;-77
2022/08/22 00:14:55;;;;;;;2.10;1.40;;;16.20;99.90;;;;;;5056530;28;20502;-72
2022/08/22 00:17:49;;;;;;;3.10;1.60;;;16.20;99.90;;;;;;5040424;28;20671;-75
2022/08/22 00:20:34;;;;;;;6.45;1.30;;;16.20;99.90;;;;;;5056655;28;20115;-77
2022/08/22 00:23:37;;;;;;;9.57;1.50;;;16.20;99.90;;;;;;5056502;28;20047;-77
2022/08/22 00:26:38;;;;;;;3.53;1.63;;;16.20;99.90;;;;;;5040052;28;20041;-75
2022/08/22 00:29:10;;;;;;;2.70;1.20;;;16.20;99.90;;;;;;5056343;28;20135;-78
2022/08/22 00:31:42;;;;;;;2.50;1.35;;;16.20;99.90;;;;;;5056308;28;20054;-75
2022/08/22 00:34:25;;;;;;;2.25;1.20;;;16.20;99.90;;;;;;5056432;28;20036;-78
2022/08/22 00:37:14;;;;;;;5.18;1.27;;;16.20;99.90;;;;;;5056255;28;20072;-77
2022/08/22 00:39:48;;;;;;;3.75;1.05;;;16.20;99.90;;;;;;5056061;28;20052;-73
2022/08/22 00:42:20;;;;;;;3.08;1.52;;;16.20;99.90;;;;;;5056334;28;20035;-75
2022/08/22 00:45:12;;;;;;;1.55;1.17;;;16.10;99.90;;;;;;5056399;28;20071;-75
2022/08/22 00:48:07;;;;;;;2.20;1.45;;;16.10;99.90;;;;;;5056251;28;20059;-77
2022/08/22 00:50:54;;;;;;;3.15;1.65;;;16.10;99.90;;;;;;5056018;28;20123;-75
2022/08/22 00:53:35;;;;;;;2.35;1.17;;;16.10;99.90;;;;;;5056111;28;20043;-72
2022/08/22 00:56:20;;;;;;;2.85;1.23;;;16.10;99.90;;;;;;5039142;28;20093;-75
2022/08/22 00:58:59;;;;;;;9.52;1.65;;;16.10;99.90;;;;;;5039556;28;20051;-77
2022/08/22 01:01:32;;;;;;;3.10;1.30;;;16.10;99.90;;;;;;5056081;28;20043;-72
2022/08/22 01:04:28;;;;;;;4.57;1.42;;;16.00;99.90;;;;;;5055332;28;20392;-72
2022/08/22 01:07:07;;;;;;;3.63;1.48;;;16.00;99.90;;;;;;5055641;28;20036;-77
2022/08/22 01:09:45;;;;;;;3.28;1.50;;;16.00;99.90;;;;;;5055970;28;20042;-75
2022/08/22 01:12:25;;;;;;;2.22;1.23;;;16.00;99.90;;;;;;5038904;28;20032;-73
2022/08/22 01:15:04;;;;;;;2.97;1.60;;;16.10;99.90;;;;;;5038840;28;20094;-75
2022/08/22 01:17:58;;;;;;;2.70;1.17;;;16.00;99.90;;;;;;5039199;28;20040;-77
2022/08/22 01:20:48;;;;;;;3.47;1.60;;;16.00;99.90;;;;;;5038921;28;20404;-77
2022/08/22 01:23:44;;;;;;;2.05;1.38;;;15.90;99.90;;;;;;5055344;28;20036;-74
2022/08/22 01:26:29;;;;;;;3.55;1.35;;;15.90;99.90;;;;;;5038757;28;20101;-77
2022/08/22 01:29:28;;;;;;;4.90;1.50;;;15.80;99.90;;;;;;5055341;28;20037;-77
2022/08/22 01:32:32;;;;;;;6.38;2.03;;;15.80;99.90;;;;;;5038978;28;20493;-77
2022/08/22 01:35:09;;;;;;;4.57;1.50;;;15.80;99.90;;;;;;5055122;28;20055;-77
2022/08/22 01:38:07;;;;;;;3.65;1.65;;;15.80;99.90;;;;;;5038641;28;20074;-77
2022/08/22 01:40:51;;;;;;;3.70;1.60;;;15.90;99.90;;;;;;5038522;28;20036;-77
2022/08/22 01:43:35;;;;;;;2.65;1.23;;;15.80;99.90;;;;;;5055059;28;20044;-78
2022/08/22 01:46:33;;;;;;;2.60;1.65;;;15.80;99.90;;;;;;5055065;28;20087;-75
2022/08/22 01:49:08;;;;;;;3.58;1.88;;;15.70;99.90;;;;;;5054969;28;20385;-73
2022/08/22 01:51:42;;;;;;;2.30;1.58;;;15.80;99.90;;;;;;5055342;28;20040;-72
2022/08/22 01:54:39;;;;;;;2.00;1.40;;;15.80;99.90;;;;;;5054914;28;20431;-77
2022/08/22 01:57:07;;;;;;;3.85;1.88;;;15.80;99.90;;;;;;5034398;28;20045;-77
2022/08/22 01:59:43;;;;;;;5.00;1.48;;;15.80;99.90;;;;;;5055114;28;20088;-77
2022/08/22 02:02:18;;;;;;;2.70;1.80;;;15.70;99.90;;;;;;5054948;28;20036;-77
2022/08/22 02:05:08;;;;;;;2.65;1.90;;;15.70;99.90;;;;;;5054967;28;20044;-72
2022/08/22 02:08:07;;;;;;;6.57;1.92;;;15.80;99.90;;;;;;5038565;28;20052;-75
2022/08/22 02:10:51;;;;;;;1.95;1.40;;;15.70;99.90;;;;;;5034526;28;20062;-77
2022/08/22 02:13:29;;;;;;;3.72;1.95;;;15.70;99.90;;;;;;5054866;28;20040;-72
2022/08/22 02:16:22;;;;;;;2.45;1.40;;;15.70;99.90;;;;;;5056306;28;20044;-77
2022/08/22 02:19:08;;;;;;;1.80;1.35;;;15.70;99.90;;;;;;5022752;28;20051;-77
2022/08/22 02:21:52;;;;;;;4.75;1.60;;;15.70;99.90;;;;;;5048204;28;20407;-75
2022/08/22 02:25:05;;;;;;;3.38;1.63;;;15.70;99.90;;;;;;5058946;28;20051;-75
2022/08/22 02:27:42;;;;;;;2.13;1.38;;;15.70;99.90;;;;;;5058714;28;20072;-77
2022/08/22 02:30:15;;;;;;;2.33;1.50;;;15.70;99.90;;;;;;5058854;28;20051;-78
2022/08/22 02:32:41;;;;;;;2.15;1.50;;;15.60;99.90;;;;;;5058668;28;20481;-75
2022/08/22 02:35:34;;;;;;;2.25;1.42;;;15.60;99.90;;;;;;5058439;28;20127;-75
2022/08/22 02:38:06;;;;;;;1.38;0.98;;;15.60;99.90;;;;;;5058265;28;20053;-73
2022/08/22 02:41:06;;;;;;;5.32;1.60;;;15.50;99.90;;;;;;5042013;28;20488;-77
2022/08/22 02:43:42;;;;;;;2.83;1.35;;;15.50;99.90;;;;;;5058381;28;20050;-77
2022/08/22 02:46:28;;;;;;;1.52;1.20;;;15.50;99.90;;;;;;5058345;28;20052;-75
2022/08/22 02:49:06;;;;;;;2.85;1.35;;;15.50;99.90;;;;;;5041902;28;20052;-75
2022/08/22 02:51:48;;;;;;;3.70;1.60;;;15.50;99.90;;;;;;5058594;28;20066;-77
2022/08/22 02:54:29;;;;;;;1.30;1.15;;;15.40;99.90;;;;;;5058404;28;20044;-72
2022/08/22 02:57:23;;;;;;;4.13;1.52;;;15.40;99.90;;;;;;5041772;28;20048;-75
2022/08/22 03:00:14;;;;;;;2.97;1.38;;;15.30;99.90;;;;;;5058343;28;20040;-73
2022/08/22 03:02:57;;;;;;;5.70;1.70;;;15.30;99.90;;;;;;5058267;28;20484;-77
2022/08/22 03:05:28;;;;;;;3.75;1.80;;;15.30;99.90;;;;;;5058117;28;20072;-77
2022/08/22 03:08:24;;;;;;;2.00;1.58;;;15.20;99.90;;;;;;5041589;28;20119;-78
2022/08/22 03:11:14;;;;;;;6.75;1.35;;;15.20;99.90;;;;;;5057893;28;20403;-73
2022/08/22 03:13:46;;;;;;;3.88;1.40;;;15.20;99.90;;;;;;5057826;28;20041;-77
2022/08/22 03:16:15;;;;;;;4.88;1.90;;;15.20;99.90;;;;;;5041009;28;20044;-75
2022/08/22 03:18:40;;;;;;;1.95;1.42;;;15.20;99.90;;;;;;5057760;28;20037;-77
2022/08/22 03:21:29;;;;;;;2.30;1.38;;;15.20;99.90;;;;;;5041375;28;20102;-72
2022/08/22 03:24:10;;;;;;;2.58;1.35;;;15.20;99.90;;;;;;5057687;28;20047;-74
2022/08/22 03:26:57;;;;;;;3.45;1.40;;;15.10;99.90;;;;;;5057353;28;20041;-75
2022/08/22 03:29:26;;;;;;;9.05;1.90;;;15.20;99.90;;;;;;5041263;28;20511;-76
2022/08/22 03:32:15;;;;;;;4.38;1.52;;;15.10;99.90;;;;;;5057812;28;20124;-77
2022/08/22 03:34:57;;;;;;;3.22;1.70;;;15.10;99.90;;;;;;5057414;28;20044;-77
2022/08/22 03:37:38;;;;;;;7.22;1.67;;;15.20;99.90;;;;;;5040818;28;20037;-75
2022/08/22 03:40:30;;;;;;;;;;;15.20;99.90;;;;;;5057989;28;20048;-72
2022/08/22 03:43:19;;;;;;;2.50;1.77;;;15.30;99.90;;;;;;5053547;28;19920;-74
2022/08/22 03:46:22;;;;;;;11.75;2.50;;;15.30;99.90;;;;;;5056705;28;20393;-77
2022/08/22 03:48:54;;;;;;;2.65;1.58;;;15.30;99.90;;;;;;5040749;28;20044;-73
2022/08/22 03:51:44;;;;;;;3.90;2.20;;;15.30;99.90;;;;;;5057408;28;20135;-77
2022/08/22 03:54:35;;;;;;;3.70;1.60;;;15.30;99.90;;;;;;5057268;28;20036;-73
2022/08/22 03:57:47;;;;;;;1.83;1.20;;;15.40;99.90;;;;;;5057018;28;20072;-77
2022/08/22 04:00:35;;;;;;;2.72;1.65;;;15.30;99.90;;;;;;5040331;28;20399;-77
2022/08/22 04:03:23;;;;;;;3.80;1.95;;;15.30;99.90;;;;;;5056905;28;20449;-77
2022/08/22 04:06:04;;;;;;;7.20;1.67;;;15.40;99.90;;;;;;5040649;28;20048;-77
2022/08/22 04:08:32;;;;;;;;;;;15.40;99.90;;;;;;5057234;28;20076;-78
2022/08/22 04:11:10;;;;;;;7.13;1.95;;;15.40;99.90;;;;;;5056724;28;19920;-77
2022/08/22 04:14:04;;;;;;;3.10;1.80;;;15.40;99.90;;;;;;5057045;28;20059;-75
2022/08/22 04:17:14;;;;;;;2.63;2.00;;;15.40;99.90;;;;;;5056550;28;20045;-77
2022/08/22 04:19:54;;;;;;;3.57;2.53;;;15.40;99.90;;;;;;4976756;28;20085;-77
2022/08/22 04:22:58;;;;;;;3.60;2.10;;;15.40;99.90;;;;;;5053092;28;20392;-72
2022/08/22 04:25:34;;;;;;;6.60;2.10;;;15.40;99.90;;;;;;5056502;28;20508;-72
2022/08/22 04:28:18;;;;;;;3.63;2.17;;;15.40;99.90;;;;;;5056433;28;20044;-73
2022/08/22 04:31:24;;;;;;;4.90;2.55;;;15.40;99.90;;;;;;5056607;28;20534;-77
2022/08/22 04:33:56;;;;;;;3.83;2.25;;;15.40;99.90;;;;;;5056352;28;20036;-72
2022/08/22 04:36:26;;;;;;;4.22;2.15;;;15.50;99.90;;;;;;5056254;28;20048;-75
2022/08/22 04:39:26;;;;;;;3.53;2.08;;;15.50;99.90;;;;;;5039057;28;20060;-77
2022/08/22 04:41:58;;;;;;;3.10;2.15;;;15.50;99.90;;;;;;5039821;28;20044;-77
2022/08/22 04:44:59;;;;;;;5.95;2.20;;;15.50;99.90;;;;;;5056051;28;20404;-77
2022/08/22 04:47:49;;;;;;;4.55;2.38;;;15.50;99.90;;;;;;4976353;28;20038;-73
2022/08/22 04:50:33;;;;;;;6.18;2.90;;;15.40;99.90;;;;;;5052595;28;20056;-77
2022/08/22 04:53:02;;;;;;;4.93;2.40;;;15.50;99.90;;;;;;5056025;28;20079;-72
2022/08/22 04:55:39;;;;;;;3.50;2.17;;;15.50;99.90;;;;;;5055889;28;20136;-77
2022/08/22 04:58:14;;;;;;;4.47;2.42;;;15.50;99.90;;;;;;5039501;28;20051;-77
2022/08/22 05:01:05;;;;;;;5.90;2.42;;;15.50;99.90;;;;;;5055827;28;20476;-78
2022/08/22 05:03:35;;;;;;;2.75;1.90;;;15.40;99.90;;;;;;5039179;28;20385;-73
2022/08/22 05:06:04;;;;;;;5.65;2.67;;;15.60;99.90;;;;;;5039074;28;20043;-77
2022/08/22 05:08:34;;;;;;;4.80;2.58;;;15.60;99.90;;;;;;5039268;28;20048;-75
2022/08/22 05:11:02;;;;;;;;;;;15.60;99.90;;;;;;5056008;28;20123;-77
2022/08/22 05:13:37;;;;;;;4.22;2.75;;;15.60;99.90;;;;;;5056290;28;19927;-72
2022/08/22 05:16:09;;;;;;;8.80;2.75;;;15.70;99.90;;;;;;5055382;28;20067;-76
2022/08/22 05:18:41;;;;;;;4.78;2.63;;;15.70;99.90;;;;;;5038938;28;20047;-75
2022/08/22 05:21:08;;;;;;;4.30;2.60;;;15.70;99.90;;;;;;5055778;28;20037;-73
2022/08/22 05:23:43;;;;;;;5.05;2.53;;;15.80;99.90;;;;;;5055640;28;20135;-77
2022/08/22 05:26:11;;;;;;;5.80;2.92;;;15.80;99.90;;;;;;5055342;28;20416;-77
2022/08/22 05:28:48;;;;;;;5.50;2.88;;;15.90;99.90;;;;;;5039213;28;20527;-79
2022/08/22 05:31:25;;;;;;;4.95;2.30;;;15.80;99.90;;;;;;5055524;28;20086;-73
2022/08/22 05:33:58;;;;;;;4.38;2.45;;;15.90;99.90;;;;;;5055256;28;20036;-76
2022/08/22 05:36:27;;;;;;;6.07;2.67;;;16.00;99.90;;;;;;5055207;28;20124;-76
2022/08/22 05:39:00;;;;;;;5.35;2.30;;;16.10;99.90;;;;;;5054937;28;20056;-72
2022/08/22 05:41:31;;;;;;;5.72;2.53;;;16.10;99.90;;;;;;5055668;28;20032;-75
2022/08/22 05:43:57;;;;;;;4.07;2.38;;;16.10;99.90;;;;;;5055315;28;20492;-73
2022/08/22 05:46:45;;;;;;;8.20;2.85;;;16.30;99.90;;;;;;5038729;28;20040;-70
2022/08/22 05:49:23;;;;;;;5.13;2.58;;;16.30;99.90;;;;;;5054999;28;20045;-76
2022/08/22 05:52:21;;;;;;;3.95;2.22;;;16.40;99.90;;;;;;5055325;28;20051;-76
2022/08/22 05:54:54;;;;;;;3.72;2.38;;;16.40;99.90;;;;;;5055226;28;20048;-77
2022/08/22 05:57:30;;;;;;;6.13;3.00;;;16.40;99.90;;;;;;5038471;28;20079;-76
2022/08/22 06:00:10;;;;;;;6.25;2.40;;;16.40;99.90;;;;;;5055078;28;20040;-76
2022/08/22 06:02:50;;;;;;;5.07;2.75;;;16.50;99.90;;;;;;5055814;28;20048;-75
2022/08/22 06:05:24;;;;;;;3.92;1.92;;;16.50;99.90;;;;;;5055394;28;20048;-76
2022/08/22 06:07:53;;;;;;;3.13;2.20;;;16.60;99.90;;;;;;5054957;28;20086;-72
2022/08/22 06:10:22;;;;;;;6.95;2.10;;;16.60;99.90;;;;;;5055066;28;20044;-74
2022/08/22 06:13:02;;;;;;;4.78;2.20;;;16.70;99.90;;;;;;5055600;28;20056;-76
2022/08/22 06:15:37;;;;;;;4.70;2.47;;;16.80;99.90;;;;;;5055007;28;20048;-74
2022/08/22 06:18:09;;;;;;;3.80;2.35;;;16.80;99.90;;;;;;5055003;28;20040;-75
2022/08/22 06:20:52;;;;;;;4.90;2.70;;;16.90;99.90;;;;;;5038402;28;20037;-75
2022/08/22 06:23:49;;;;;;;3.78;2.38;;;17.00;99.90;;;;;;5038104;28;20044;-75
2022/08/22 06:26:17;;;;;;;6.72;2.97;;;17.00;99.90;;;;;;5050939;28;20045;-74
2022/08/22 06:28:48;;;;;;;6.35;2.25;;;17.10;99.90;;;;;;5021946;28;20114;-75
2022/08/22 06:31:21;;;;;;;6.65;2.70;;;17.20;99.90;;;;;;5038011;28;20052;-76
2022/08/22 06:34:12;;;;;;;3.05;2.30;;;17.20;99.90;;;;;;5054522;28;20155;-76
2022/08/22 06:36:42;;;;;;;3.60;2.10;;;17.20;99.90;;;;;;5037337;28;20064;-74
2022/08/22 06:39:31;;;;;;;4.03;2.22;;;17.10;99.90;;;;;;5034350;28;20061;-77
2022/08/22 06:42:09;;;;;;;3.97;2.63;;;17.20;99.90;;;;;;5034591;28;20474;-75
2022/08/22 06:44:44;;;;;;;5.13;2.67;;;17.20;99.90;;;;;;5051043;28;20033;-76
2022/08/22 06:47:23;;;;;;;3.58;2.42;;;17.30;99.90;;;;;;5051419;28;20124;-73
2022/08/22 06:49:53;;;;;;;6.13;2.70;;;17.30;99.90;;;;;;5051432;28;20488;-77
2022/08/22 06:52:22;;;;;;;4.38;2.55;;;17.60;99.90;;;;;;5051392;28;20095;-72
2022/08/22 06:54:55;;;;;;;6.30;2.50;;;17.60;99.90;;;;;;5051021;28;20456;-73
2022/08/22 06:57:30;;;;;;;3.47;2.35;;;17.60;99.90;;;;;;5051257;28;20044;-76
2022/08/22 06:59:57;;;;;;;5.22;2.63;;;17.90;99.90;;;;;;5051349;28;20037;-75
2022/08/22 07:02:38;;;;;;;4.38;2.50;;;17.40;99.90;;;;;;5053346;28;20404;-76
2022/08/22 07:05:06;;;;;;;4.00;2.45;;;;;;;;;;5037966;28;20053;-77
2022/08/22 07:07:34;;;;;;;7.30;2.72;;;17.60;99.90;;;;;;5038053;28;20045;-77
2022/08/22 07:10:00;;;;;;;4.30;2.50;;;17.70;99.90;;;;;;5054532;28;20454;-77
2022/08/22 07:12:35;;;;;;;5.38;2.22;;;17.70;99.90;;;;;;5054537;28;20048;-76
2022/08/22 07:15:35;;;;;;;4.57;2.55;;;17.70;99.90;;;;;;5054585;28;20048;-74
2022/08/22 07:18:23;;;;;;;4.40;2.63;;;17.70;99.90;;;;;;5050127;28;20060;-74
2022/08/22 07:20:52;;;;;;;4.78;2.55;;;18.10;99.90;;;;;;5054651;28;20044;-79
2022/08/22 07:23:44;;;;;;;3.05;1.92;;;18.00;99.90;;;;;;5054577;28;20044;-76
2022/08/22 07:26:13;;;;;;;6.30;3.15;;;18.20;99.90;;;;;;5054429;28;20037;-73
2022/08/22 07:28:56;;;;;;;8.73;2.88;;;18.20;99.90;;;;;;5054139;28;20048;-73
2022/08/22 07:31:32;;;;;;;5.30;3.13;;;18.20;99.90;;;;;;5037935;28;20090;-77
2022/08/22 07:34:21;;;;;;;4.15;2.53;;;18.20;99.90;;;;;;5054421;28;20048;-74
2022/08/22 07:37:18;;;;;;;4.07;2.80;;;18.20;99.90;;;;;;5054137;28;20110;-76
2022/08/22 07:39:50;;;;;;;3.92;2.38;;;18.30;99.90;;;;;;5053874;28;20056;-74
2022/08/22 07:42:32;;;;;;;5.22;2.25;;;18.30;99.90;;;;;;5054009;28;20037;-73
2022/08/22 07:45:48;;;;;;;3.90;2.33;;;18.50;99.90;;;;;;5053978;28;20498;-77
2022/08/22 07:48:25;;;;;;;5.53;2.38;;;18.70;99.90;;;;;;5054105;28;20045;-77
2022/08/22 07:50:57;;;;;;;4.28;2.33;;;18.50;99.90;;;;;;5037192;28;20056;-77
2022/08/22 07:53:39;;;;;;;5.18;2.53;;;18.60;99.90;;;;;;5053822;28;20052;-76
2022/08/22 07:56:06;;;;;;;7.55;2.78;;;;;;;;;;5037051;28;20463;-77
2022/08/22 07:58:38;;;;;;;4.88;2.05;;;18.70;99.90;;;;;;5053968;28;20037;-73
2022/08/22 08:01:07;;;;;;;6.53;2.22;;;18.70;99.90;;;;;;5053627;28;20079;-77
2022/08/22 08:03:34;;;;;;;3.28;2.20;;;18.70;99.90;;;;;;5053561;28;20044;-77
2022/08/22 08:06:00;;;;;;;4.88;2.33;;;18.80;99.90;;;;;;5037327;28;20045;-73
2022/08/22 08:08:38;;;;;;;3.13;2.05;;;18.80;99.90;;;;;;5053719;28;20460;-73
2022/08/22 08:11:06;;;;;;;5.03;2.08;;;18.80;99.90;;;;;;5036751;28;20048;-74
2022/08/22 08:13:39;;;;;;;4.53;2.30;;;18.80;99.90;;;;;;5052376;28;20041;-77
2022/08/22 08:16:09;;;;;;;3.88;2.10;;;18.90;99.90;;;;;;5053283;28;20469;-77
2022/08/22 08:18:38;;;;;;;6.22;2.45;;;18.90;99.90;;;;;;5053275;28;20055;-77
2022/08/22 08:21:13;;;;;;;3.25;1.75;;;18.90;99.90;;;;;;5036670;28;20041;-74
2022/08/22 08:23:45;;;;;;;3.33;1.77;;;19.00;99.90;;;;;;5053191;28;20037;-77
2022/08/22 08:26:16;;;;;;;6.40;2.13;;;19.10;99.90;;;;;;5053096;28;20044;-77
2022/08/22 08:28:48;;;;;;;5.20;2.30;;;19.10;99.90;;;;;;5053356;28;20036;-77
2022/08/22 08:31:26;;;;;;;6.43;2.75;;;;;;;;;;5053013;28;20072;-75
2022/08/22 08:33:57;;;;;;;7.47;2.28;;;;;;;;;;5036634;28;20041;-77
2022/08/22 08:36:23;;;;;;;5.80;2.47;;;;;;;;;;5036293;28;20450;-74
2022/08/22 08:39:12;;;;;;;6.82;2.42;;;;;;;;;;5036320;28;20088;-73
2022/08/22 08:41:48;;;;;;;7.07;3.10;;;;;;;;;;5053064;28;20045;-77
2022/08/22 08:44:17;;;;;;;3.90;2.40;;;;;;;;;;5036519;28;20079;-77
2022/08/22 08:46:52;;;;;;;4.22;2.40;;;;;;;;;;5052713;28;20404;-77
2022/08/22 08:49:18;;;;;;;5.82;2.13;;;;;;;;;;5052613;28;20056;-76
2022/08/22 08:51:53;;;;;;;4.60;2.13;;;;;;;;;;5036220;28;20033;-76
2022/08/22 08:54:42;;;;;;;5.15;2.03;;;;;;;;;;5052840;28;20044;-73
2022/08/22 08:57:11;;;;;;;5.00;1.80;;;;;;;;;;5052532;28;20408;-74
2022/08/22 08:59:37;;;;;;;3.85;2.03;;;;;;;;;;5035852;28;20043;-76
2022/08/22 09:02:19;;;;;;;7.65;2.20;;;;;;;;;;5035893;28;20131;-77
2022/08/22 09:05:05;;;;;;;6.63;2.15;;;;;;;;;;5052696;28;20056;-73
2022/08/22 09:07:55;;;;;;;3.72;1.77;;;;;;;;;;5036109;28;20045;-76
2022/08/22 09:10:22;;;;;;;4.85;1.55;;;;;;;;;;5036047;28;20045;-74
2022/08/22 09:12:51;;;;;;;6.95;1.92;;;;;;;;;;5035727;28;20052;-77
2022/08/22 09:15:31;;;;;;;4.88;1.85;;;;;;;;;;5035597;28;20179;-77
2022/08/22 09:18:07;;;;;;;6.90;2.47;;;;;;;;;;5035652;28;20033;-77
2022/08/22 09:20:45;;;;;;;4.45;1.70;;;;;;;;;;5052122;28;20041;-72
2022/08/22 09:23:19;;;;;;;2.90;1.75;;;19.70;99.90;;;;;;5052104;28;20404;-76
2022/08/22 09:25:45;;;;;;;3.45;1.90;;;19.70;99.90;;;;;;5051775;28;20040;-75
2022/08/22 09:28:18;;;;;;;10.25;2.50;;;19.80;99.90;;;;;;5035749;28;20044;-74
2022/08/22 09:31:11;;;;;;;3.80;1.98;;;19.90;99.90;;;;;;5052247;28;20502;-73
2022/08/22 09:33:44;;;;;;;2.47;1.83;;;19.90;99.90;;;;;;5035370;28;20128;-74
2022/08/22 09:36:35;;;;;;;2.08;1.42;;;19.90;99.90;;;;;;5035220;28;20075;-73
2022/08/22 09:39:15;;;;;;;4.10;1.70;;;20.00;99.90;;;;;;5046242;28;20518;-77
2022/08/22 09:42:00;;;;;;;7.53;2.10;;;20.10;99.90;;;;;;5051905;28;20090;-76
2022/08/22 09:44:52;;;;;;;4.97;1.92;;;20.20;99.90;;;;;;5051760;28;20106;-73
2022/08/22 09:47:23;;;;;;;2.78;1.58;;;20.20;99.90;;;;;;5051776;28;20045;-73
2022/08/22 09:50:13;;;;;;;6.22;2.25;;;20.30;99.90;;;;;;5051748;28;20037;-77
2022/08/22 09:53:06;;;;;;;3.75;1.70;;;20.50;99.90;;;;;;5052171;28;20055;-78
2022/08/22 09:55:39;;;;;;;4.97;2.13;;;20.50;99.90;;;;;;5035092;28;20049;-78
2022/08/22 09:58:46;;;;;;;6.18;2.17;;;20.70;99.90;;;;;;5034977;28;20040;-77
2022/08/22 10:01:26;;;;;;;5.80;2.25;;;20.70;99.90;;;;;;5019770;28;20056;-74
2022/08/22 10:04:16;;;;;;;2.85;1.80;;;20.80;99.90;;;;;;5035039;28;20060;-76
2022/08/22 10:07:02;;;;;;;2.25;1.38;;;20.90;99.90;;;;;;5051627;28;20048;-78
2022/08/22 10:09:39;;;;;;;3.30;1.70;;;21.00;99.90;;;;;;5051674;28;20080;-82
2022/08/22 10:12:10;;;;;;;2.25;1.10;;;21.00;99.90;;;;;;5051937;28;20049;-86
2022/08/22 10:14:57;;;;;;;8.25;2.10;;;21.10;99.90;;;;;;5051486;28;20408;-76
2022/08/22 10:18:05;;;;;;;2.90;1.20;;;21.10;99.90;;;;;;5051543;28;20094;-73
2022/08/22 10:20:52;;;;;;;2.92;1.45;;;21.30;99.90;;;;;;5051586;28;20099;-74
2022/08/22 10:23:34;;;;;;;3.85;1.45;;;21.40;99.90;;;;;;5051458;28;20045;-74
2022/08/22 10:26:27;;;;;;;1.63;1.00;;;21.40;99.90;;;;;;5051671;28;20423;-73
2022/08/22 10:29:38;;;;;;;3.38;1.48;;;21.50;99.90;;;;;;5034960;28;20052;-81
2022/08/22 10:32:13;;;;;;;3.83;1.40;;;21.40;99.90;;;;;;5041311;28;20127;-79
2022/08/22 10:34:45;;;;;;;3.65;1.58;;;21.50;99.90;;;;;;5051286;28;20407;-77
2022/08/22 10:37:45;;;;;;;3.13;1.40;;;21.60;99.90;;;;;;5036719;28;20045;-82
2022/08/22 10:40:24;;;;;;;2.45;1.35;;;21.70;99.90;;;;;;5055272;28;20094;-77
2022/08/22 10:43:05;;;;;;;2.40;1.13;;;21.80;99.90;;;;;;5038689;28;20037;-82
2022/08/22 10:45:33;;;;;;;6.45;1.30;;;21.80;99.90;;;;;;5038456;28;20128;-82
2022/08/22 10:48:26;;;;;;;2.30;0.90;;;21.80;99.90;;;;;;5038459;28;20441;-76
2022/08/22 10:51:04;;;;;;;3.28;1.05;;;21.80;99.90;;;;;;5026612;28;20056;-78
2022/08/22 10:53:34;;;;;;;1.38;0.63;;;21.80;99.90;;;;;;5054994;28;20068;-79
2022/08/22 10:56:08;;;;;;;2.35;1.00;;;21.80;99.90;;;;;;5054935;28;20048;-77
2022/08/22 10:59:03;;;;;;;2.30;1.38;;;21.80;99.90;;;;;;5054921;28;20033;-76
2022/08/22 11:01:37;;;;;;;4.80;1.17;;;21.90;99.90;;;;;;5019273;28;20056;-77
2022/08/22 11:04:11;;;;;;;2.80;0.90;;;21.80;99.90;;;;;;5055146;28;20485;-76
2022/08/22 11:06:45;;;;;;;2.03;0.90;;;21.90;99.90;;;;;;5055050;28;20480;-80
2022/08/22 11:09:17;;;;;;;2.83;1.27;;;22.00;99.90;;;;;;5054953;28;20045;-78
2022/08/22 11:11:49;;;;;;;4.90;1.17;;;21.90;99.90;;;;;;5054703;28;20090;-76
2022/08/22 11:14:26;;;;;;;2.97;1.10;;;21.90;99.90;;;;;;5054595;28;20452;-79
2022/08/22 11:17:01;;;;;;;6.32;1.17;;;22.00;99.90;;;;;;5037887;28;20048;-74
2022/08/22 11:19:42;;;;;;;5.63;1.48;;;22.00;99.90;;;;;;5037825;28;20037;-76
2022/08/22 11:22:47;;;;;;;2.08;1.10;;;22.00;99.90;;;;;;5037976;28;20041;-77
2022/08/22 11:25:43;;;;;;;2.60;1.20;;;22.10;99.90;;;;;;5033786;28;20052;-78
2022/08/22 11:28:42;;;;;;;5.65;0.82;;;22.20;99.90;;;;;;5054382;28;20094;-77
2022/08/22 11:31:32;;;;;;;4.60;1.42;;;22.30;99.90;;;;;;5054307;28;20049;-77
2022/08/22 11:34:08;;;;;;;4.50;1.00;;;22.30;99.90;;;;;;5054294;28;20060;-76
2022/08/22 11:36:49;;;;;;;0.90;0.73;;;22.40;99.90;;;;;;5037666;28;20125;-79
2022/08/22 11:39:32;;;;;;;6.57;1.30;;;22.60;99.90;;;;;;5054002;28;20059;-79
2022/08/22 11:42:20;;;;;;;3.55;0.88;;;22.70;99.90;;;;;;5037493;28;20523;-79
2022/08/22 11:44:56;;;;;;;1.92;1.00;;;22.80;99.90;;;;;;5054382;28;20047;-76
2022/08/22 11:47:27;;;;;;;2.50;1.00;;;22.80;99.90;;;;;;5054070;28;20100;-76
2022/08/22 11:50:17;;;;;;;1.98;1.08;;;22.80;99.90;;;;;;5053960;28;20059;-76
2022/08/22 11:53:01;;;;;;;2.72;1.10;;;23.00;99.90;;;;;;5037442;28;20051;-76
2022/08/22 11:55:37;;;;;;;2.13;0.63;;;23.10;99.90;;;;;;5053753;28;20094;-76
2022/08/22 11:58:37;;;;;;;3.65;1.23;;;23.10;99.90;;;;;;5053976;28;20040;-76
2022/08/22 12:01:20;;;;;;;2.95;1.20;;;23.10;99.90;;;;;;5053533;28;20041;-76
2022/08/22 12:04:05;;;;;;;2.00;1.13;;;22.90;99.90;;;;;;5053673;28;20044;-75
2022/08/22 12:07:11;;;;;;;3.45;0.98;;;23.00;99.90;;;;;;5053586;28;20041;-77
2022/08/22 12:09:49;;;;;;;1.35;0.80;;;22.90;99.90;;;;;;5031252;28;20060;-77
2022/08/22 12:12:34;;;;;;;1.98;0.93;;;22.90;99.90;;;;;;5036876;28;20049;-75
2022/08/22 12:15:11;;;;;;;3.03;1.02;;;23.00;99.90;;;;;;5036698;28;20407;-78
2022/08/22 12:18:04;;;;;;;3.53;1.10;;;23.00;99.90;;;;;;5053400;28;20374;-77
2022/08/22 12:20:48;;;;;;;6.70;0.93;;;23.20;99.90;;;;;;5053288;28;20041;-75
2022/08/22 12:23:39;;;;;;;1.45;0.90;;;23.30;99.90;;;;;;5036722;28;20033;-77
2022/08/22 12:26:28;;;;;;;3.45;1.00;;;23.40;99.90;;;;;;5021148;28;20045;-76
2022/08/22 12:29:00;;;;;;;5.95;0.90;;;23.50;99.90;;;;;;5036622;28;20041;-77
2022/08/22 12:31:41;;;;;;;1.92;0.90;;;23.50;99.90;;;;;;5053440;28;20086;-78
2022/08/22 12:34:32;;;;;;;2.72;1.27;;;23.50;99.90;;;;;;5053051;28;20047;-75
2022/08/22 12:37:18;;;;;;;1.25;1.00;;;23.50;99.90;;;;;;5036412;28;20103;-76
2022/08/22 12:40:32;;;;;;;2.85;1.40;;;23.80;99.90;;;;;;5015862;28;20049;-78
2022/08/22 12:43:39;;;;;;;2.85;1.10;;;24.10;99.90;;;;;;5022320;28;20051;-78
2022/08/22 12:46:14;;;;;;;2.33;1.20;;;24.00;99.90;;;;;;5030897;28;20045;-76
2022/08/22 12:48:52;;;;;;;4.60;1.20;;;24.00;99.90;;;;;;5036443;28;20044;-77
2022/08/22 12:51:35;;;;;;;2.03;1.10;;;24.10;99.90;;;;;;5053015;28;20112;-77
2022/08/22 12:54:04;;;;;;;3.65;1.30;;;24.40;99.90;;;;;;5036219;28;20536;-76
2022/08/22 12:56:47;;;;;;;1.90;1.02;;;24.50;99.90;;;;;;5035925;28;20052;-75
2022/08/22 12:59:32;;;;;;;4.97;1.30;;;24.60;99.90;;;;;;5035437;28;20041;-77
2022/08/22 13:02:01;;;;;;;2.25;1.33;;;24.70;99.90;;;;;;5052715;28;20048;-75
2022/08/22 13:04:32;;;;;;;1.95;1.17;;;24.70;99.90;;;;;;5052459;28;20044;-77
2022/08/22 13:07:05;;;;;;;3.70;1.08;;;24.70;99.90;;;;;;5052371;28;20037;-76
2022/08/22 13:09:39;;;;;;;2.28;1.23;;;24.60;99.90;;;;;;5052434;28;20407;-76
2022/08/22 13:12:31;;;;;;;1.33;1.00;;;24.50;99.90;;;;;;5052304;28;20036;-77
2022/08/22 13:15:27;;;;;;;2.28;1.20;;;24.40;99.90;;;;;;5035634;28;20045;-77
2022/08/22 13:17:55;;;;;;;3.33;1.23;;;24.30;99.90;;;;;;5038329;28;20052;-77
2022/08/22 13:20:52;;;;;;;2.70;1.48;;;24.40;99.90;;;;;;5035838;28;20041;-77
2022/08/22 13:23:23;;;;;;;5.00;1.13;;;24.10;99.90;;;;;;5027634;28;20087;-77
2022/08/22 13:25:58;;;;;;;1.90;1.02;;;24.30;99.90;;;;;;5035811;28;20515;-78
2022/08/22 13:28:27;;;;;;;3.72;1.17;;;24.40;99.90;;;;;;5052357;28;20954;-77
2022/08/22 13:30:54;;;;;;;4.30;1.20;;;24.50;99.90;;;;;;5052224;28;20044;-78
2022/08/22 13:33:45;;;;;;;2.90;1.52;;;24.70;99.90;;;;;;5052011;28;20098;-77
2022/08/22 13:36:15;;;;;;;1.88;1.38;;;24.60;99.90;;;;;;5036031;28;20381;-76
2022/08/22 13:39:21;;;;;;;3.13;1.40;;;24.60;99.90;;;;;;5051764;28;20057;-76
2022/08/22 13:41:54;;;;;;;2.63;0.73;;;24.50;99.90;;;;;;5035300;28;20086;-74
2022/08/22 13:44:37;;;;;;;2.22;1.30;;;24.50;99.90;;;;;;5052237;28;20040;-77
2022/08/22 13:47:07;;;;;;;3.47;1.23;;;24.50;99.90;;;;;;5052102;28;20033;-84
2022/08/22 13:49:44;;;;;;;;;;;24.50;99.90;;;;;;5052274;28;20415;-82
2022/08/22 13:52:37;;;;;;;2.38;0.90;;;24.40;99.90;;;;;;5051722;28;20340;-72
2022/08/22 13:55:30;;;;;;;1.55;0.90;;;24.50;99.90;;;;;;5051844;28;20043;-75
2022/08/22 13:58:04;;;;;;;4.32;1.58;;;24.60;99.90;;;;;;5051212;28;20045;-75
2022/08/22 14:01:00;;;;;;;4.32;1.35;;;24.80;99.90;;;;;;5051935;28;20527;-73
2022/08/22 14:03:48;;;;;;;4.70;1.92;;;24.80;99.90;;;;;;5051903;28;20120;-76
2022/08/22 14:06:49;;;;;;;2.92;1.23;;;24.80;99.90;;;;;;5045189;28;20055;-75
2022/08/22 14:09:32;;;;;;;3.10;1.25;;;24.70;99.90;;;;;;5051828;28;20057;-78